createdAt,value
2023-02-11T00:00:18.900Z,9.203766
2023-02-11T00:01:18.893Z,9.203646
2023-02-11T00:02:18.901Z,9.203649
2023-02-11T00:03:18.926Z,9.203764
2023-02-11T00:04:18.868Z,9.203973
2023-02-11T00:05:18.876Z,9.203584
2023-02-11T00:06:18.866Z,9.203822
2023-02-11T00:07:18.869Z,9.203716
2023-02-11T00:08:18.883Z,9.203680
2023-02-11T00:09:18.848Z,9.203778
2023-02-11T00:10:18.823Z,9.203759
2023-02-11T00:11:18.827Z,9.203847
2023-02-11T00:12:18.849Z,9.203652
2023-02-11T00:13:18.836Z,9.203639
2023-02-11T00:14:18.851Z,9.203930
2023-02-11T00:15:18.821Z,9.203835
2023-02-11T00:16:19.072Z,9.203762
2023-02-11T00:17:18.782Z,9.203516
2023-02-11T00:18:18.827Z,9.203717
2023-02-11T00:19:18.802Z,9.203728
2023-02-11T00:20:18.775Z,9.203747
2023-02-11T00:21:18.808Z,9.203793
2023-02-11T00:22:18.806Z,9.204421
2023-02-11T00:23:18.740Z,9.203608
2023-02-11T00:24:18.802Z,9.203850
2023-02-11T00:25:18.770Z,9.203690
2023-02-11T00:26:18.765Z,9.203861
2023-02-11T00:27:18.734Z,9.203877
2023-02-11T00:28:18.769Z,9.203730
2023-02-11T00:29:18.700Z,9.204040
2023-02-11T00:30:18.771Z,9.203848
2023-02-11T00:31:18.854Z,9.203732
2023-02-11T00:32:18.745Z,9.203971
2023-02-11T00:33:18.677Z,9.203958
2023-02-11T00:34:18.670Z,9.203831
2023-02-11T00:35:18.734Z,9.203742
2023-02-11T00:36:18.654Z,9.203778
2023-02-11T00:37:18.689Z,9.203679
2023-02-11T00:38:18.654Z,9.203705
2023-02-11T00:39:18.648Z,9.203656
2023-02-11T00:40:18.675Z,9.203732
2023-02-11T00:41:18.691Z,9.203560
2023-02-11T00:42:18.647Z,9.203626
2023-02-11T00:43:18.633Z,9.203652
2023-02-11T00:44:18.603Z,9.203665
2023-02-11T00:45:18.625Z,9.203773
2023-02-11T00:46:18.696Z,9.203694
2023-02-11T00:47:18.617Z,9.203803
2023-02-11T00:48:18.606Z,9.203590
2023-02-11T00:49:18.574Z,9.203549
2023-02-11T00:50:18.584Z,9.203600
2023-02-11T00:51:18.590Z,9.203671
2023-02-11T00:52:18.620Z,9.203770
2023-02-11T00:53:18.563Z,9.203601
2023-02-11T00:54:18.598Z,9.203982
2023-02-11T00:55:18.543Z,9.203728
2023-02-11T00:56:18.595Z,9.203663
2023-02-11T00:57:18.529Z,9.203887
2023-02-11T00:58:18.523Z,9.203732
2023-02-11T00:59:18.534Z,9.203686
2023-02-11T01:00:18.504Z,9.203394
2023-02-11T01:01:18.651Z,9.203782
2023-02-11T01:02:18.539Z,9.203996
2023-02-11T01:03:18.504Z,9.204064
2023-02-11T01:04:18.503Z,9.203999
2023-02-11T01:05:18.527Z,9.203732
2023-02-11T01:06:18.529Z,9.203811
2023-02-11T01:07:18.470Z,9.204050
2023-02-11T01:08:18.474Z,9.203739
2023-02-11T01:09:18.470Z,9.203959
2023-02-11T01:10:18.480Z,9.204041
2023-02-11T01:11:18.478Z,9.204138
2023-02-11T01:12:18.473Z,9.204046
2023-02-11T01:13:18.422Z,9.204011
2023-02-11T01:14:18.462Z,9.204053
2023-02-11T01:15:18.438Z,9.204114
2023-02-11T01:16:18.637Z,9.204007
2023-02-11T01:17:18.424Z,9.203866
2023-02-11T01:18:18.419Z,9.203835
2023-02-11T01:19:18.412Z,9.203925
2023-02-11T01:20:18.407Z,9.203765
2023-02-11T01:21:18.417Z,9.203764
2023-02-11T01:22:18.363Z,9.203941
2023-02-11T01:23:18.376Z,9.203645
2023-02-11T01:24:18.371Z,9.203350
2023-02-11T01:25:18.359Z,9.203547
2023-02-11T01:26:18.386Z,9.203523
2023-02-11T01:27:18.349Z,9.203653
2023-02-11T01:28:18.435Z,9.203857
2023-02-11T01:29:18.355Z,9.204205
2023-02-11T01:30:18.390Z,9.203907
2023-02-11T01:31:18.457Z,9.203975
2023-02-11T01:32:18.387Z,9.204187
2023-02-11T01:33:18.342Z,9.203938
2023-02-11T01:34:18.348Z,9.203904
2023-02-11T01:35:18.329Z,9.203883
2023-02-11T01:36:18.287Z,9.204315
2023-02-11T01:37:18.272Z,9.203941
2023-02-11T01:38:18.308Z,9.203802
2023-02-11T01:39:18.281Z,9.203769
2023-02-11T01:40:18.251Z,9.203848
2023-02-11T01:41:18.263Z,9.203804
2023-02-11T01:42:18.252Z,9.203836
2023-02-11T01:43:18.289Z,9.203737
2023-02-11T01:44:18.322Z,9.203961
2023-02-11T01:45:18.243Z,9.203881
2023-02-11T01:46:18.254Z,9.203679
2023-02-11T01:47:18.235Z,9.203832
2023-02-11T01:48:18.219Z,9.203891
2023-02-11T01:49:18.315Z,9.203786
2023-02-11T01:50:18.240Z,9.203794
2023-02-11T01:51:18.254Z,9.203751
2023-02-11T01:52:18.221Z,9.203739
2023-02-11T01:53:18.199Z,9.203493
2023-02-11T01:54:18.194Z,9.203647
2023-02-11T01:55:18.205Z,9.203756
2023-02-11T01:56:18.181Z,9.203741
2023-02-11T01:57:18.168Z,9.203743
2023-02-11T01:58:18.166Z,9.203729
2023-02-11T01:59:18.191Z,9.203796
2023-02-11T02:00:18.176Z,9.203669
2023-02-11T02:01:18.193Z,9.203601
2023-02-11T02:02:18.207Z,9.203841
2023-02-11T02:03:18.173Z,9.203843
2023-02-11T02:04:18.147Z,9.203889
2023-02-11T02:05:18.131Z,9.203710
2023-02-11T02:06:18.137Z,9.203839
2023-02-11T02:07:18.112Z,9.203824
2023-02-11T02:08:18.179Z,9.203681
2023-02-11T02:09:18.118Z,9.203833
2023-02-11T02:10:18.095Z,9.203783
2023-02-11T02:11:18.137Z,9.203791
2023-02-11T02:12:18.084Z,9.203749
2023-02-11T02:13:18.056Z,9.203838
2023-02-11T02:14:18.091Z,9.203786
2023-02-11T02:15:18.101Z,9.203794
2023-02-11T02:16:18.120Z,9.203582
2023-02-11T02:17:18.066Z,9.203966
2023-02-11T02:18:18.056Z,9.203837
2023-02-11T02:19:18.088Z,9.203859
2023-02-11T02:20:18.028Z,9.203712
2023-02-11T02:21:18.019Z,9.203769
2023-02-11T02:22:18.028Z,9.203637
2023-02-11T02:23:18.042Z,9.203866
2023-02-11T02:24:18.007Z,9.203740
2023-02-11T02:25:18.018Z,9.203755
2023-02-11T02:26:17.977Z,9.203651
2023-02-11T02:27:18.015Z,9.203657
2023-02-11T02:28:18.054Z,9.203516
2023-02-11T02:29:17.976Z,9.203885
2023-02-11T02:30:18.019Z,9.203827
2023-02-11T02:31:17.987Z,9.203784
2023-02-11T02:32:17.985Z,9.203776
2023-02-11T02:33:23.616Z,9.203751
2023-02-11T02:34:19.904Z,9.203930
2023-02-11T02:35:17.943Z,9.203404
2023-02-11T02:36:17.984Z,9.203204
2023-02-11T02:37:17.954Z,9.203755
2023-02-11T02:38:17.893Z,9.203794
2023-02-11T02:39:17.880Z,9.203813
2023-02-11T02:40:17.867Z,9.203969
2023-02-11T02:41:17.886Z,9.203987
2023-02-11T02:42:17.907Z,9.203727
2023-02-11T02:43:17.887Z,9.203759
2023-02-11T02:44:17.850Z,9.203809
2023-02-11T02:45:17.886Z,9.203784
2023-02-11T02:46:17.884Z,9.203915
2023-02-11T02:47:17.849Z,9.203835
2023-02-11T02:48:17.881Z,9.203839
2023-02-11T02:49:17.848Z,9.203934
2023-02-11T02:50:17.850Z,9.203813
2023-02-11T02:51:17.883Z,9.203736
2023-02-11T02:52:17.801Z,9.203745
2023-02-11T02:53:17.845Z,9.203803
2023-02-11T02:54:17.854Z,9.203611
2023-02-11T02:55:17.780Z,9.203550
2023-02-11T02:56:17.796Z,9.203774
2023-02-11T02:57:17.795Z,9.203794
2023-02-11T02:58:17.778Z,9.203713
2023-02-11T02:59:17.793Z,9.203759
2023-02-11T03:00:17.817Z,9.203789
2023-02-11T03:01:17.760Z,9.203715
2023-02-11T03:02:17.744Z,9.203646
2023-02-11T03:03:17.741Z,9.203706
2023-02-11T03:04:17.754Z,9.203690
2023-02-11T03:05:17.761Z,9.203675
2023-02-11T03:06:17.764Z,9.203852
2023-02-11T03:07:17.697Z,9.203794
2023-02-11T03:08:17.716Z,9.203825
2023-02-11T03:09:17.704Z,9.204084
2023-02-11T03:10:17.736Z,9.203657
2023-02-11T03:11:17.691Z,9.203843
2023-02-11T03:12:17.694Z,9.203827
2023-02-11T03:13:17.698Z,9.203804
2023-02-11T03:14:17.689Z,9.203710
2023-02-11T03:15:17.702Z,9.203692
2023-02-11T03:16:17.691Z,9.203871
2023-02-11T03:17:18.652Z,9.203858
2023-02-11T03:18:17.651Z,9.203795
2023-02-11T03:19:17.640Z,9.204213
2023-02-11T03:20:17.632Z,9.203893
2023-02-11T03:21:17.689Z,9.203831
2023-02-11T03:22:17.620Z,9.204078
2023-02-11T03:23:17.642Z,9.203890
2023-02-11T03:24:17.588Z,9.203731
2023-02-11T03:25:17.627Z,9.203740
2023-02-11T03:26:17.603Z,9.203798
2023-02-11T03:27:17.591Z,9.203768
2023-02-11T03:28:17.663Z,9.203659
2023-02-11T03:29:17.570Z,9.203595
2023-02-11T03:30:17.625Z,9.203598
2023-02-11T03:31:17.698Z,9.203584
2023-02-11T03:32:17.688Z,9.203616
2023-02-11T03:33:17.534Z,9.203696
2023-02-11T03:34:17.568Z,9.203684
2023-02-11T03:35:17.579Z,9.203704
2023-02-11T03:36:17.533Z,9.203695
2023-02-11T03:37:17.542Z,9.203800
2023-02-11T03:38:17.531Z,9.203742
2023-02-11T03:39:17.518Z,9.203671
2023-02-11T03:40:17.504Z,9.203712
2023-02-11T03:41:17.527Z,9.203638
2023-02-11T03:42:17.536Z,9.203552
2023-02-11T03:43:17.558Z,9.203624
2023-02-11T03:44:17.497Z,9.203773
2023-02-11T03:45:17.503Z,9.203677
2023-02-11T03:46:17.555Z,9.203581
2023-02-11T03:47:17.480Z,9.203674
2023-02-11T03:48:17.482Z,9.203705
2023-02-11T03:49:17.465Z,9.203717
2023-02-11T03:50:17.477Z,9.203674
2023-02-11T03:51:17.456Z,9.203683
2023-02-11T03:52:17.455Z,9.203650
2023-02-11T03:53:17.478Z,9.203558
2023-02-11T03:54:17.451Z,9.203506
2023-02-11T03:55:17.403Z,9.203827
2023-02-11T03:56:17.419Z,9.203721
2023-02-11T03:57:17.405Z,9.203873
2023-02-11T03:58:17.414Z,9.203746
2023-02-11T03:59:17.394Z,9.203717
2023-02-11T04:00:17.406Z,9.203741
2023-02-11T04:01:17.397Z,9.203495
2023-02-11T04:02:17.382Z,9.203815
2023-02-11T04:03:17.498Z,9.203780
2023-02-11T04:04:17.518Z,9.203765
2023-02-11T04:05:17.389Z,9.203758
2023-02-11T04:06:17.357Z,9.203965
2023-02-11T04:07:17.332Z,9.203919
2023-02-11T04:08:17.348Z,9.203666
2023-02-11T04:09:17.344Z,9.203878
2023-02-11T04:10:17.317Z,9.203800
2023-02-11T04:11:17.319Z,9.203773
2023-02-11T04:12:17.296Z,9.203717
2023-02-11T04:13:17.306Z,9.203757
2023-02-11T04:14:17.355Z,9.203767
2023-02-11T04:15:17.305Z,9.203922
2023-02-11T04:16:17.316Z,9.203606
2023-02-11T04:17:17.258Z,9.203442
2023-02-11T04:18:17.320Z,9.203461
2023-02-11T04:19:17.291Z,9.203664
2023-02-11T04:20:17.545Z,9.203666
2023-02-11T04:21:17.306Z,9.203533
2023-02-11T04:22:17.304Z,9.203426
2023-02-11T04:23:17.275Z,9.203502
2023-02-11T04:24:17.247Z,9.203441
2023-02-11T04:25:17.289Z,9.203501
2023-02-11T04:26:17.247Z,9.203768
2023-02-11T04:27:17.218Z,9.203654
2023-02-11T04:28:17.298Z,9.203681
2023-02-11T04:29:18.198Z,9.203609
2023-02-11T04:30:17.248Z,9.203496
2023-02-11T04:31:17.243Z,9.203333
2023-02-11T04:32:17.167Z,9.203584
2023-02-11T04:33:17.270Z,9.203891
2023-02-11T04:34:17.200Z,9.203914
2023-02-11T04:35:17.212Z,9.203737
2023-02-11T04:36:17.310Z,9.203481
2023-02-11T04:37:17.148Z,9.203712
2023-02-11T04:38:17.165Z,9.203583
2023-02-11T04:39:17.098Z,9.203695
2023-02-11T04:40:17.159Z,9.203856
2023-02-11T04:41:17.107Z,9.203829
2023-02-11T04:42:18.114Z,9.203691
2023-02-11T04:43:17.146Z,9.203678
2023-02-11T04:44:17.113Z,9.203821
2023-02-11T04:45:17.102Z,9.203797
2023-02-11T04:46:17.131Z,9.203671
2023-02-11T04:47:17.075Z,9.203729
2023-02-11T04:48:17.151Z,9.203896
2023-02-11T04:49:17.107Z,9.203875
2023-02-11T04:50:17.074Z,9.203922
2023-02-11T04:51:17.072Z,9.203692
2023-02-11T04:52:17.045Z,9.203762
2023-02-11T04:53:17.066Z,9.203560
2023-02-11T04:54:17.116Z,9.203619
2023-02-11T04:55:17.033Z,9.203805
2023-02-11T04:56:17.075Z,9.203899
2023-02-11T04:57:17.025Z,9.203878
2023-02-11T04:58:17.026Z,9.203833
2023-02-11T04:59:18.477Z,9.204464
2023-02-11T05:00:17.065Z,9.204241
2023-02-11T05:01:17.213Z,9.204801
2023-02-11T05:02:16.979Z,9.204501
2023-02-11T05:03:16.986Z,9.204252
2023-02-11T05:04:17.154Z,9.203884
2023-02-11T05:05:16.992Z,9.203542
2023-02-11T05:06:16.978Z,9.203824
2023-02-11T05:07:16.968Z,9.203644
2023-02-11T05:08:16.975Z,9.203556
2023-02-11T05:09:16.977Z,9.203795
2023-02-11T05:10:16.946Z,9.203840
2023-02-11T05:11:16.939Z,9.203536
2023-02-11T05:12:16.927Z,9.203320
2023-02-11T05:13:16.951Z,9.203827
2023-02-11T05:14:16.916Z,9.203907
2023-02-11T05:15:16.928Z,9.203894
2023-02-11T05:16:16.973Z,9.203852
2023-02-11T05:17:16.897Z,9.203774
2023-02-11T05:18:16.905Z,9.203992
2023-02-11T05:19:16.901Z,9.204154
2023-02-11T05:20:16.862Z,9.203980
2023-02-11T05:21:16.888Z,9.204099
2023-02-11T05:22:16.876Z,9.203749
2023-02-11T05:23:16.860Z,9.203706
2023-02-11T05:24:16.882Z,9.203639
2023-02-11T05:25:16.843Z,9.203747
2023-02-11T05:26:16.907Z,9.203633
2023-02-11T05:27:16.843Z,9.203768
2023-02-11T05:28:16.844Z,9.203875
2023-02-11T05:29:16.831Z,9.204063
2023-02-11T05:30:16.816Z,9.203808
2023-02-11T05:31:16.938Z,9.203577
2023-02-11T05:32:16.837Z,9.203611
2023-02-11T05:33:16.797Z,9.203139
2023-02-11T05:34:16.804Z,9.203346
2023-02-11T05:35:16.793Z,9.203092
2023-02-11T05:36:16.808Z,9.202812
2023-02-11T05:37:16.842Z,9.203455
2023-02-11T05:38:16.762Z,9.203652
2023-02-11T05:39:16.748Z,9.203917
2023-02-11T05:40:16.751Z,9.203932
2023-02-11T05:41:16.789Z,9.204275
2023-02-11T05:42:16.800Z,9.204422
2023-02-11T05:43:16.749Z,9.204033
2023-02-11T05:44:16.737Z,9.204347
2023-02-11T05:45:16.742Z,9.203868
2023-02-11T05:46:16.829Z,9.203419
2023-02-11T05:47:16.774Z,9.202785
2023-02-11T05:48:16.688Z,9.203350
2023-02-11T05:49:16.717Z,9.203520
2023-02-11T05:50:16.677Z,9.203202
2023-02-11T05:51:16.671Z,9.202884
2023-02-11T05:52:16.705Z,9.202840
2023-02-11T05:53:16.658Z,9.202882
2023-02-11T05:54:16.702Z,9.202982
2023-02-11T05:55:16.651Z,9.203412
2023-02-11T05:56:16.676Z,9.203645
2023-02-11T05:57:16.662Z,9.203838
2023-02-11T05:58:16.646Z,9.204215
2023-02-11T05:59:16.645Z,9.204076
2023-02-11T06:00:16.661Z,9.203789
2023-02-11T06:01:16.599Z,9.203732
2023-02-11T06:02:16.705Z,9.203859
2023-02-11T06:03:16.696Z,9.203856
2023-02-11T06:04:16.626Z,9.203281
2023-02-11T06:05:16.685Z,9.203186
2023-02-11T06:06:16.599Z,9.203182
2023-02-11T06:07:16.620Z,9.203139
2023-02-11T06:08:16.586Z,9.203155
2023-02-11T06:09:16.597Z,9.203439
2023-02-11T06:10:17.559Z,9.203683
2023-02-11T06:11:16.564Z,9.203640
2023-02-11T06:12:16.584Z,9.203588
2023-02-11T06:13:16.533Z,9.203760
2023-02-11T06:14:16.580Z,9.204060
2023-02-11T06:15:16.568Z,9.203821
2023-02-11T06:16:16.588Z,9.203529
2023-02-11T06:17:16.517Z,9.203669
2023-02-11T06:18:16.542Z,9.203692
2023-02-11T06:19:16.562Z,9.203702
2023-02-11T06:20:16.505Z,9.203907
2023-02-11T06:21:16.505Z,9.204146
2023-02-11T06:22:16.464Z,9.203493
2023-02-11T06:23:16.499Z,9.203322
2023-02-11T06:24:28.571Z,9.203182
2023-02-11T06:25:18.452Z,9.203460
2023-02-11T06:26:16.510Z,9.203833
2023-02-11T06:27:16.482Z,9.204013
2023-02-11T06:28:20.996Z,9.203859
2023-02-11T06:29:18.955Z,9.203712
2023-02-11T06:30:17.211Z,9.204065
2023-02-11T06:31:19.882Z,9.203607
2023-02-11T06:32:36.907Z,9.203541
2023-02-11T06:33:18.624Z,9.203517
2023-02-11T06:34:16.435Z,9.203547
2023-02-11T06:35:16.432Z,9.203547
2023-02-11T06:36:18.711Z,9.203934
2023-02-11T06:37:17.389Z,9.204093
2023-02-11T06:38:16.386Z,9.204489
2023-02-11T06:39:16.382Z,9.204138
2023-02-11T06:40:16.385Z,9.203588
2023-02-11T06:41:16.503Z,9.203557
2023-02-11T06:42:16.337Z,9.203800
2023-02-11T06:43:16.361Z,9.204048
2023-02-11T06:44:16.332Z,9.204499
2023-02-11T06:45:16.341Z,9.203756
2023-02-11T06:46:16.354Z,9.204086
2023-02-11T06:47:16.340Z,9.204790
2023-02-11T06:48:16.358Z,9.204112
2023-02-11T06:49:16.307Z,9.203935
2023-02-11T06:50:16.302Z,9.203395
2023-02-11T06:51:16.275Z,9.203967
2023-02-11T06:52:16.290Z,9.204089
2023-02-11T06:53:16.291Z,9.204469
2023-02-11T06:54:16.285Z,9.204014
2023-02-11T06:55:16.302Z,9.203859
2023-02-11T06:56:16.265Z,9.203249
2023-02-11T06:57:16.269Z,9.203403
2023-02-11T06:58:16.260Z,9.203651
2023-02-11T06:59:16.297Z,9.203648
2023-02-11T07:00:16.262Z,9.203611
2023-02-11T07:01:16.254Z,9.203594
2023-02-11T07:02:17.516Z,9.203630
2023-02-11T07:03:16.306Z,9.203903
2023-02-11T07:04:16.254Z,9.203835
2023-02-11T07:05:16.225Z,9.203687
2023-02-11T07:06:16.199Z,9.203459
2023-02-11T07:07:16.249Z,9.203553
2023-02-11T07:08:16.197Z,9.204035
2023-02-11T07:09:16.230Z,9.203885
2023-02-11T07:10:16.165Z,9.203659
2023-02-11T07:11:16.202Z,9.203806
2023-02-11T07:12:16.185Z,9.204122
2023-02-11T07:13:16.180Z,9.204285
2023-02-11T07:14:16.172Z,9.204590
2023-02-11T07:15:16.144Z,9.204552
2023-02-11T07:16:16.155Z,9.204314
2023-02-11T07:17:16.131Z,9.204350
2023-02-11T07:18:16.180Z,9.203915
2023-02-11T07:19:16.197Z,9.203460
2023-02-11T07:20:16.106Z,9.203930
2023-02-11T07:21:16.095Z,9.203331
2023-02-11T07:22:16.090Z,9.203486
2023-02-11T07:23:16.158Z,9.204008
2023-02-11T07:24:16.068Z,9.203794
2023-02-11T07:25:16.085Z,9.204505
2023-02-11T07:26:17.047Z,9.204038
2023-02-11T07:27:16.086Z,9.203938
2023-02-11T07:28:16.172Z,9.203587
2023-02-11T07:29:16.076Z,9.204104
2023-02-11T07:30:16.057Z,9.203811
2023-02-11T07:31:16.126Z,9.203842
2023-02-11T07:32:16.129Z,9.203178
2023-02-11T07:33:16.060Z,9.203156
2023-02-11T07:34:16.055Z,9.203670
2023-02-11T07:35:16.022Z,9.203526
2023-02-11T07:36:16.003Z,9.203447
2023-02-11T07:37:21.026Z,9.203275
2023-02-11T07:38:18.402Z,9.203830
2023-02-11T07:39:17.212Z,9.203652
2023-02-11T07:40:16.840Z,9.203816
2023-02-11T07:41:15.994Z,9.203390
2023-02-11T07:42:15.989Z,9.203545
2023-02-11T07:43:16.039Z,9.203859
2023-02-11T07:44:16.043Z,9.203714
2023-02-11T07:45:15.996Z,9.203589
2023-02-11T07:46:15.976Z,9.203727
2023-02-11T07:47:15.934Z,9.203652
2023-02-11T07:48:15.925Z,9.203717
2023-02-11T07:49:15.954Z,9.203792
2023-02-11T07:50:15.935Z,9.203661
2023-02-11T07:51:15.916Z,9.203763
2023-02-11T07:52:15.891Z,9.203647
2023-02-11T07:53:15.891Z,9.203674
2023-02-11T07:54:15.916Z,9.203755
2023-02-11T07:55:15.915Z,9.203734
2023-02-11T07:56:15.861Z,9.203653
2023-02-11T07:57:16.893Z,9.203673
2023-02-11T07:58:15.853Z,9.203703
2023-02-11T07:59:15.867Z,9.203740
2023-02-11T08:00:15.842Z,9.203769
2023-02-11T08:01:15.895Z,9.203697
2023-02-11T08:02:15.873Z,9.203697
2023-02-11T08:03:15.861Z,9.203704
2023-02-11T08:04:15.807Z,9.203622
2023-02-11T08:05:15.833Z,9.203773
2023-02-11T08:06:15.842Z,9.203817
2023-02-11T08:07:15.842Z,9.203720
2023-02-11T08:08:15.805Z,9.203699
2023-02-11T08:09:15.841Z,9.203639
2023-02-11T08:10:15.787Z,9.203603
2023-02-11T08:11:15.778Z,9.203433
2023-02-11T08:12:15.932Z,9.203423
2023-02-11T08:13:15.778Z,9.203571
2023-02-11T08:14:15.746Z,9.203682
2023-02-11T08:15:15.757Z,9.203554
2023-02-11T08:16:15.786Z,9.203808
2023-02-11T08:17:15.758Z,9.203777
2023-02-11T08:18:15.777Z,9.203868
2023-02-11T08:19:15.903Z,9.203658
2023-02-11T08:20:15.719Z,9.203750
2023-02-11T08:21:15.733Z,9.203465
2023-02-11T08:22:15.725Z,9.203413
2023-02-11T08:23:15.726Z,9.203376
2023-02-11T08:24:15.788Z,9.203769
2023-02-11T08:25:15.699Z,9.203836
2023-02-11T08:26:15.684Z,9.203632
2023-02-11T08:27:15.678Z,9.203629
2023-02-11T08:28:15.738Z,9.203546
2023-02-11T08:29:15.801Z,9.203368
2023-02-11T08:30:15.810Z,9.203769
2023-02-11T08:31:15.736Z,9.203681
2023-02-11T08:32:15.747Z,9.203606
2023-02-11T08:33:15.662Z,9.203638
2023-02-11T08:34:15.624Z,9.203684
2023-02-11T08:35:15.691Z,9.203779
2023-02-11T08:36:15.617Z,9.203797
2023-02-11T08:37:15.638Z,9.203753
2023-02-11T08:38:15.597Z,9.203720
2023-02-11T08:39:19.791Z,9.203736
2023-02-11T08:40:16.745Z,9.203732
2023-02-11T08:41:15.609Z,9.203856
2023-02-11T08:42:15.621Z,9.203814
2023-02-11T08:43:15.585Z,9.203784
2023-02-11T08:44:15.610Z,9.203897
2023-02-11T08:45:15.571Z,9.203896
2023-02-11T08:46:16.641Z,9.203958
2023-02-11T08:47:15.566Z,9.203821
2023-02-11T08:48:15.551Z,9.203799
2023-02-11T08:49:15.546Z,9.203696
2023-02-11T08:50:15.569Z,9.203753
2023-02-11T08:51:15.568Z,9.203637
2023-02-11T08:52:15.518Z,9.203604
2023-02-11T08:53:15.551Z,9.203628
2023-02-11T08:54:15.526Z,9.203697
2023-02-11T08:55:16.509Z,9.203890
2023-02-11T08:56:15.593Z,9.203718
2023-02-11T08:57:15.500Z,9.203786
2023-02-11T08:58:18.117Z,9.203771
2023-02-11T08:59:15.554Z,9.203716
2023-02-11T09:00:15.488Z,9.203827
2023-02-11T09:01:15.566Z,9.203827
2023-02-11T09:02:15.487Z,9.203810
2023-02-11T09:03:15.455Z,9.203818
2023-02-11T09:04:15.439Z,9.203733
2023-02-11T09:05:15.486Z,9.203647
2023-02-11T09:06:15.552Z,9.203673
2023-02-11T09:07:15.462Z,9.203700
2023-02-11T09:08:15.440Z,9.203758
2023-02-11T09:09:15.423Z,9.203815
2023-02-11T09:10:15.515Z,9.203942
2023-02-11T09:11:15.582Z,9.203702
2023-02-11T09:12:15.407Z,9.203749
2023-02-11T09:13:15.418Z,9.203625
2023-02-11T09:14:15.414Z,9.203438
2023-02-11T09:15:15.384Z,9.203815
2023-02-11T09:16:15.531Z,9.203647
2023-02-11T09:17:15.394Z,9.203580
2023-02-11T09:18:15.353Z,9.203831
2023-02-11T09:19:15.353Z,9.203849
2023-02-11T09:20:15.356Z,9.203806
2023-02-11T09:21:15.365Z,9.203797
2023-02-11T09:22:15.362Z,9.203831
2023-02-11T09:23:17.625Z,9.203724
2023-02-11T09:24:15.324Z,9.203847
2023-02-11T09:25:15.349Z,9.203571
2023-02-11T09:26:15.297Z,9.203697
2023-02-11T09:27:15.318Z,9.203674
2023-02-11T09:28:15.471Z,9.203903
2023-02-11T09:29:15.297Z,9.204049
2023-02-11T09:30:15.286Z,9.203997
2023-02-11T09:31:15.457Z,9.203858
2023-02-11T09:32:15.427Z,9.203943
2023-02-11T09:33:15.308Z,9.203619
2023-02-11T09:34:15.261Z,9.203757
2023-02-11T09:35:15.276Z,9.203659
2023-02-11T09:36:15.274Z,9.203612
2023-02-11T09:37:15.233Z,9.203876
2023-02-11T09:38:15.232Z,9.203840
2023-02-11T09:39:15.265Z,9.203842
2023-02-11T09:40:15.223Z,9.203810
2023-02-11T09:41:15.214Z,9.203712
2023-02-11T09:42:15.208Z,9.203738
2023-02-11T09:43:15.213Z,9.203672
2023-02-11T09:44:15.225Z,9.203749
2023-02-11T09:45:15.186Z,9.203938
2023-02-11T09:46:15.229Z,9.203894
2023-02-11T09:47:15.166Z,9.203958
2023-02-11T09:48:15.171Z,9.203938
2023-02-11T09:49:15.185Z,9.203945
2023-02-11T09:50:15.176Z,9.203790
2023-02-11T09:51:15.136Z,9.203673
2023-02-11T09:52:15.156Z,9.203844
2023-02-11T09:53:15.198Z,9.203959
2023-02-11T09:54:15.144Z,9.203862
2023-02-11T09:55:15.192Z,9.203760
2023-02-11T09:56:15.135Z,9.203837
2023-02-11T09:57:27.975Z,9.203480
2023-02-11T09:58:17.108Z,9.203538
2023-02-11T09:59:15.100Z,9.203941
2023-02-11T10:00:15.252Z,9.203928
2023-02-11T10:01:15.141Z,9.203884
2023-02-11T10:02:15.100Z,9.203736
2023-02-11T10:03:15.090Z,9.203835
2023-02-11T10:04:15.208Z,9.204138
2023-02-11T10:05:15.072Z,9.203853
2023-02-11T10:06:15.152Z,9.204187
2023-02-11T10:07:15.089Z,9.203835
2023-02-11T10:08:16.932Z,9.203686
2023-02-11T10:09:16.086Z,9.203616
2023-02-11T10:10:15.073Z,9.203685
2023-02-11T10:11:29.529Z,9.203463
2023-02-11T10:12:17.081Z,9.203679
2023-02-11T10:13:15.027Z,9.203943
2023-02-11T10:14:15.143Z,9.204103
2023-02-11T10:15:15.043Z,9.203826
2023-02-11T10:16:15.162Z,9.203698
2023-02-11T10:17:15.011Z,9.204107
2023-02-11T10:18:15.022Z,9.203450
2023-02-11T10:19:14.996Z,9.203917
2023-02-11T10:20:16.933Z,9.203801
2023-02-11T10:21:15.981Z,9.203841
2023-02-11T10:22:14.983Z,9.203955
2023-02-11T10:23:14.960Z,9.203785
2023-02-11T10:24:14.978Z,9.203902
2023-02-11T10:25:15.002Z,9.203925
2023-02-11T10:26:14.938Z,9.203779
2023-02-11T10:27:15.159Z,9.204108
2023-02-11T10:28:14.961Z,9.203773
2023-02-11T10:29:14.988Z,9.203771
2023-02-11T10:30:15.077Z,9.203690
2023-02-11T10:31:15.022Z,9.203986
2023-02-11T10:32:15.013Z,9.203922
2023-02-11T10:33:14.919Z,9.203403
2023-02-11T10:34:14.887Z,9.203552
2023-02-11T10:35:15.898Z,9.203609
2023-02-11T10:36:14.935Z,9.203927
2023-02-11T10:37:14.893Z,9.204417
2023-02-11T10:38:14.875Z,9.203952
2023-02-11T10:39:14.879Z,9.203753
2023-02-11T10:40:14.880Z,9.204181
2023-02-11T10:41:14.891Z,9.203887
2023-02-11T10:42:14.855Z,9.203626
2023-02-11T10:43:14.878Z,9.203084
2023-02-11T10:44:14.860Z,9.203585
2023-02-11T10:45:14.884Z,9.203943
2023-02-11T10:46:14.930Z,9.204090
2023-02-11T10:47:14.840Z,9.203702
2023-02-11T10:48:16.440Z,9.203950
2023-02-11T10:49:15.794Z,9.203744
2023-02-11T10:50:14.801Z,9.203813
2023-02-11T10:51:14.827Z,9.203731
2023-02-11T10:52:14.787Z,9.203383
2023-02-11T10:53:14.893Z,9.203433
2023-02-11T10:54:14.784Z,9.204017
2023-02-11T10:55:14.769Z,9.204185
2023-02-11T10:56:14.801Z,9.203916
2023-02-11T10:57:14.780Z,9.204108
2023-02-11T10:58:14.763Z,9.204594
2023-02-11T10:59:14.876Z,9.205213
2023-02-11T11:00:14.751Z,9.204358
2023-02-11T11:01:24.408Z,9.204454
2023-02-11T11:02:16.732Z,9.204436
2023-02-11T11:03:14.792Z,9.204397
2023-02-11T11:04:14.809Z,9.204293
2023-02-11T11:05:14.703Z,9.204366
2023-02-11T11:06:14.730Z,9.204506
2023-02-11T11:07:14.715Z,9.204506
2023-02-11T11:08:14.691Z,9.204506
2023-02-11T11:09:14.708Z,9.204506
2023-02-11T11:10:14.690Z,9.204506
2023-02-11T11:11:14.767Z,9.205237
2023-02-11T11:12:14.867Z,9.204697
2023-02-11T11:13:14.695Z,9.204489
2023-02-11T11:14:14.736Z,9.204861
2023-02-11T11:15:14.686Z,9.204571
2023-02-11T11:16:14.821Z,9.203951
2023-02-11T11:17:14.674Z,9.203848
2023-02-11T11:18:21.281Z,9.203675
2023-02-11T11:19:16.743Z,9.203485
2023-02-11T11:20:14.690Z,9.203408
2023-02-11T11:21:14.654Z,9.203389
2023-02-11T11:22:14.675Z,9.203675
2023-02-11T11:23:14.615Z,9.203736
2023-02-11T11:24:14.616Z,9.203700
2023-02-11T11:25:17.825Z,9.203733
2023-02-11T11:26:15.632Z,9.203687
2023-02-11T11:27:14.623Z,9.204086
2023-02-11T11:28:14.788Z,9.203690
2023-02-11T11:29:14.630Z,9.203915
2023-02-11T11:30:14.648Z,9.203755
2023-02-11T11:31:14.714Z,9.204323
2023-02-11T11:32:14.604Z,9.203890
2023-02-11T11:33:14.589Z,9.203724
2023-02-11T11:34:14.599Z,9.203953
2023-02-11T11:35:14.581Z,9.203732
2023-02-11T11:36:14.559Z,9.204239
2023-02-11T11:37:14.787Z,9.203815
2023-02-11T11:38:14.573Z,9.203571
2023-02-11T11:39:14.529Z,9.203684
2023-02-11T11:40:14.526Z,9.203730
2023-02-11T11:41:14.534Z,9.203877
2023-02-11T11:42:14.580Z,9.203720
2023-02-11T11:43:14.768Z,9.203567
2023-02-11T11:44:14.551Z,9.203828